sensor_id;sensor_type;location;lat;lon;timestamp;pressure;altitude;pressure_sealevel;temperature;humidity
42111;BME280;27766;52.174;5.456;2023-05-03T00:00:10;102917.78;;;6.45;100.00
42111;BME280;27766;52.174;5.456;2023-05-03T00:02:38;102915.00;;;6.42;100.00
42111;BME280;27766;52.174;5.456;2023-05-03T00:05:07;102914.22;;;6.43;100.00
42111;BME280;27766;52.174;5.456;2023-05-03T00:07:45;102912.44;;;6.42;100.00
42111;BME280;27766;52.174;5.456;2023-05-03T00:10:12;102909.06;;;6.43;100.00
42111;BME280;27766;52.174;5.456;2023-05-03T00:12:42;102909.06;;;6.43;100.00
42111;BME280;27766;52.174;5.456;2023-05-03T00:15:10;102914.13;;;6.41;100.00
42111;BME280;27766;52.174;5.456;2023-05-03T00:17:37;102898.38;;;6.37;100.00
42111;BME280;27766;52.174;5.456;2023-05-03T00:20:04;102898.16;;;6.33;100.00
42111;BME280;27766;52.174;5.456;2023-05-03T00:22:33;102895.94;;;6.26;100.00
42111;BME280;27766;52.174;5.456;2023-05-03T00:25:00;102904.25;;;6.22;100.00
42111;BME280;27766;52.174;5.456;2023-05-03T00:27:27;102908.97;;;6.16;100.00
42111;BME280;27766;52.174;5.456;2023-05-03T00:29:54;102912.56;;;6.06;100.00
42111;BME280;27766;52.174;5.456;2023-05-03T00:32:22;102917.59;;;6.05;100.00
42111;BME280;27766;52.174;5.456;2023-05-03T00:34:55;102909.66;;;6.01;100.00
42111;BME280;27766;52.174;5.456;2023-05-03T00:37:24;102917.28;;;6.00;100.00
42111;BME280;27766;52.174;5.456;2023-05-03T00:39:51;102907.31;;;5.93;100.00
42111;BME280;27766;52.174;5.456;2023-05-03T00:42:19;102915.03;;;5.93;100.00
42111;BME280;27766;52.174;5.456;2023-05-03T00:44:46;102912.38;;;5.91;100.00
42111;BME280;27766;52.174;5.456;2023-05-03T00:47:14;102907.78;;;5.87;100.00
42111;BME280;27766;52.174;5.456;2023-05-03T00:49:42;102907.78;;;5.87;100.00
42111;BME280;27766;52.174;5.456;2023-05-03T00:52:10;102905.00;;;5.84;100.00
42111;BME280;27766;52.174;5.456;2023-05-03T00:54:37;102908.38;;;5.83;100.00
42111;BME280;27766;52.174;5.456;2023-05-03T00:57:05;102905.56;;;5.80;100.00
42111;BME280;27766;52.174;5.456;2023-05-03T00:59:32;102906.03;;;5.74;100.00
42111;BME280;27766;52.174;5.456;2023-05-03T01:02:00;102907.50;;;5.70;100.00
42111;BME280;27766;52.174;5.456;2023-05-03T01:04:28;102900.13;;;5.63;100.00
42111;BME280;27766;52.174;5.456;2023-05-03T01:07:07;102910.84;;;5.69;100.00
42111;BME280;27766;52.174;5.456;2023-05-03T01:09:59;102918.22;;;5.65;100.00
42111;BME280;27766;52.174;5.456;2023-05-03T01:12:47;102916.22;;;5.61;100.00
42111;BME280;27766;52.174;5.456;2023-05-03T01:17:58;102909.97;;;5.57;100.00
42111;BME280;27766;52.174;5.456;2023-05-03T01:20:29;102907.28;;;5.55;100.00
42111;BME280;27766;52.174;5.456;2023-05-03T01:25:24;102913.53;;;5.59;100.00
42111;BME280;27766;52.174;5.456;2023-05-03T01:27:52;102916.56;;;5.53;100.00
42111;BME280;27766;52.174;5.456;2023-05-03T01:30:22;102923.47;;;5.54;100.00
42111;BME280;27766;52.174;5.456;2023-05-03T01:33:04;102919.47;;;5.46;100.00
42111;BME280;27766;52.174;5.456;2023-05-03T01:35:46;102914.66;;;5.39;100.00
42111;BME280;27766;52.174;5.456;2023-05-03T01:38:17;102920.38;;;5.35;100.00
42111;BME280;27766;52.174;5.456;2023-05-03T01:40:48;102913.00;;;5.28;100.00
42111;BME280;27766;52.174;5.456;2023-05-03T01:43:17;102913.56;;;5.23;100.00
42111;BME280;27766;52.174;5.456;2023-05-03T01:45:44;102913.22;;;5.19;100.00
42111;BME280;27766;52.174;5.456;2023-05-03T01:48:14;102900.84;;;5.13;100.00
42111;BME280;27766;52.174;5.456;2023-05-03T01:50:41;102907.88;;;5.16;100.00
42111;BME280;27766;52.174;5.456;2023-05-03T01:53:08;102903.72;;;5.18;100.00
42111;BME280;27766;52.174;5.456;2023-05-03T01:55:35;102911.22;;;5.15;100.00
42111;BME280;27766;52.174;5.456;2023-05-03T01:58:02;102911.66;;;5.09;100.00
42111;BME280;27766;52.174;5.456;2023-05-03T02:00:29;102912.53;;;5.10;100.00
42111;BME280;27766;52.174;5.456;2023-05-03T02:02:56;102899.03;;;5.00;100.00
42111;BME280;27766;52.174;5.456;2023-05-03T02:05:24;102898.13;;;5.00;100.00
42111;BME280;27766;52.174;5.456;2023-05-03T02:07:52;102900.34;;;4.95;100.00
42111;BME280;27766;52.174;5.456;2023-05-03T02:10:19;102902.56;;;4.90;100.00
42111;BME280;27766;52.174;5.456;2023-05-03T02:12:46;102901.59;;;4.88;100.00
42111;BME280;27766;52.174;5.456;2023-05-03T02:15:13;102899.69;;;4.86;100.00
42111;BME280;27766;52.174;5.456;2023-05-03T02:17:41;102896.56;;;4.90;100.00
42111;BME280;27766;52.174;5.456;2023-05-03T02:20:09;102887.06;;;4.89;100.00
42111;BME280;27766;52.174;5.456;2023-05-03T02:22:36;102878.72;;;4.91;100.00
42111;BME280;27766;52.174;5.456;2023-05-03T02:25:03;102887.66;;;4.97;100.00
42111;BME280;27766;52.174;5.456;2023-05-03T02:27:31;102876.81;;;4.89;100.00
42111;BME280;27766;52.174;5.456;2023-05-03T02:29:58;102879.72;;;4.94;100.00
42111;BME280;27766;52.174;5.456;2023-05-03T02:32:25;102877.94;;;4.93;100.00
42111;BME280;27766;52.174;5.456;2023-05-03T02:34:52;102877.72;;;4.89;100.00
42111;BME280;27766;52.174;5.456;2023-05-03T02:37:19;102874.13;;;4.87;100.00
42111;BME280;27766;52.174;5.456;2023-05-03T02:39:46;102878.50;;;4.88;100.00
42111;BME280;27766;52.174;5.456;2023-05-03T02:42:14;102871.69;;;4.89;100.00
42111;BME280;27766;52.174;5.456;2023-05-03T02:44:42;102865.53;;;4.87;100.00
42111;BME280;27766;52.174;5.456;2023-05-03T02:47:09;102867.22;;;4.86;100.00
42111;BME280;27766;52.174;5.456;2023-05-03T02:49:36;102865.09;;;4.81;100.00
42111;BME280;27766;52.174;5.456;2023-05-03T02:52:03;102861.81;;;4.71;100.00
42111;BME280;27766;52.174;5.456;2023-05-03T02:54:30;102851.69;;;4.61;100.00
42111;BME280;27766;52.174;5.456;2023-05-03T02:56:57;102853.22;;;4.59;100.00
42111;BME280;27766;52.174;5.456;2023-05-03T02:59:24;102851.00;;;4.52;100.00
42111;BME280;27766;52.174;5.456;2023-05-03T03:01:51;102844.28;;;4.42;100.00
42111;BME280;27766;52.174;5.456;2023-05-03T03:04:19;102862.22;;;4.42;100.00
42111;BME280;27766;52.174;5.456;2023-05-03T03:06:46;102860.97;;;4.37;100.00
42111;BME280;27766;52.174;5.456;2023-05-03T03:09:13;102869.69;;;4.39;100.00
42111;BME280;27766;52.174;5.456;2023-05-03T03:11:41;102859.06;;;4.34;100.00
42111;BME280;27766;52.174;5.456;2023-05-03T03:14:08;102869.13;;;4.31;100.00
42111;BME280;27766;52.174;5.456;2023-05-03T03:16:35;102876.81;;;4.31;100.00
42111;BME280;27766;52.174;5.456;2023-05-03T03:19:02;102876.81;;;4.31;100.00
42111;BME280;27766;52.174;5.456;2023-05-03T03:21:29;102877.59;;;4.30;100.00
42111;BME280;27766;52.174;5.456;2023-05-03T03:23:58;102880.25;;;4.32;100.00
42111;BME280;27766;52.174;5.456;2023-05-03T03:26:25;102881.78;;;4.30;100.00
42111;BME280;27766;52.174;5.456;2023-05-03T03:28:52;102881.69;;;4.28;100.00
42111;BME280;27766;52.174;5.456;2023-05-03T03:31:19;102876.44;;;4.26;100.00
42111;BME280;27766;52.174;5.456;2023-05-03T03:33:49;102865.38;;;4.16;100.00
42111;BME280;27766;52.174;5.456;2023-05-03T03:36:16;102871.03;;;4.11;100.00
42111;BME280;27766;52.174;5.456;2023-05-03T03:38:43;102876.94;;;4.10;100.00
42111;BME280;27766;52.174;5.456;2023-05-03T03:41:10;102881.94;;;4.09;100.00
42111;BME280;27766;52.174;5.456;2023-05-03T03:43:37;102876.72;;;4.07;100.00
42111;BME280;27766;52.174;5.456;2023-05-03T03:46:04;102873.13;;;4.05;100.00
42111;BME280;27766;52.174;5.456;2023-05-03T03:48:32;102886.97;;;4.07;100.00
42111;BME280;27766;52.174;5.456;2023-05-03T03:50:59;102882.25;;;4.02;100.00
42111;BME280;27766;52.174;5.456;2023-05-03T03:53:26;102894.28;;;4.03;100.00
42111;BME280;27766;52.174;5.456;2023-05-03T03:55:53;102894.19;;;4.01;100.00
42111;BME280;27766;52.174;5.456;2023-05-03T03:58:20;102885.00;;;3.93;100.00
42111;BME280;27766;52.174;5.456;2023-05-03T04:00:47;102883.09;;;3.90;100.00
42111;BME280;27766;52.174;5.456;2023-05-03T04:03:15;102897.03;;;3.94;100.00
42111;BME280;27766;52.174;5.456;2023-05-03T04:05:43;102894.47;;;3.94;100.00
42111;BME280;27766;52.174;5.456;2023-05-03T04:08:10;102900.59;;;3.96;100.00
42111;BME280;27766;52.174;5.456;2023-05-03T04:10:37;102895.34;;;3.94;100.00
42111;BME280;27766;52.174;5.456;2023-05-03T04:13:04;102891.38;;;3.98;100.00
42111;BME280;27766;52.174;5.456;2023-05-03T04:15:32;102891.63;;;4.01;100.00
42111;BME280;27766;52.174;5.456;2023-05-03T04:17:59;102891.97;;;4.06;100.00
42111;BME280;27766;52.174;5.456;2023-05-03T04:20:26;102894.41;;;4.04;100.00
42111;BME280;27766;52.174;5.456;2023-05-03T04:22:54;102899.78;;;4.07;100.00
42111;BME280;27766;52.174;5.456;2023-05-03T04:25:21;102907.22;;;4.04;100.00
42111;BME280;27766;52.174;5.456;2023-05-03T04:27:48;102911.56;;;4.05;100.00
42111;BME280;27766;52.174;5.456;2023-05-03T04:30:15;102916.47;;;4.02;100.00
42111;BME280;27766;52.174;5.456;2023-05-03T04:32:43;102924.16;;;4.02;100.00
42111;BME280;27766;52.174;5.456;2023-05-03T04:35:10;102930.06;;;4.01;100.00
42111;BME280;27766;52.174;5.456;2023-05-03T04:37:39;102924.56;;;3.96;100.00
42111;BME280;27766;52.174;5.456;2023-05-03T04:40:07;102935.19;;;4.01;100.00
42111;BME280;27766;52.174;5.456;2023-05-03T04:42:38;102943.75;;;4.02;100.00
42111;BME280;27766;52.174;5.456;2023-05-03T04:45:05;102932.47;;;4.00;100.00
42111;BME280;27766;52.174;5.456;2023-05-03T04:47:34;102943.09;;;4.04;100.00
42111;BME280;27766;52.174;5.456;2023-05-03T04:50:01;102935.19;;;4.01;100.00
42111;BME280;27766;52.174;5.456;2023-05-03T04:52:28;102948.56;;;4.09;100.00
42111;BME280;27766;52.174;5.456;2023-05-03T04:54:56;102950.72;;;4.15;100.00
42111;BME280;27766;52.174;5.456;2023-05-03T04:57:23;102953.78;;;4.21;100.00
42111;BME280;27766;52.174;5.456;2023-05-03T04:59:50;102947.88;;;4.22;100.00
42111;BME280;27766;52.174;5.456;2023-05-03T05:02:19;102946.81;;;4.30;100.00
42111;BME280;27766;52.174;5.456;2023-05-03T05:04:47;102949.31;;;4.40;100.00
42111;BME280;27766;52.174;5.456;2023-05-03T05:07:15;102943.88;;;4.48;100.00
42111;BME280;27766;52.174;5.456;2023-05-03T05:09:42;102947.13;;;4.57;100.00
42111;BME280;27766;52.174;5.456;2023-05-03T05:12:09;102939.91;;;4.63;100.00
42111;BME280;27766;52.174;5.456;2023-05-03T05:14:36;102945.97;;;4.75;100.00
42111;BME280;27766;52.174;5.456;2023-05-03T05:17:03;102939.50;;;4.81;100.00
42111;BME280;27766;52.174;5.456;2023-05-03T05:19:30;102959.28;;;4.94;100.00
42111;BME280;27766;52.174;5.456;2023-05-03T05:21:57;102958.19;;;5.02;100.00
42111;BME280;27766;52.174;5.456;2023-05-03T05:24:24;102956.63;;;5.04;100.00
42111;BME280;27766;52.174;5.456;2023-05-03T05:26:52;102945.59;;;5.05;100.00
42111;BME280;27766;52.174;5.456;2023-05-03T05:29:19;102960.19;;;5.18;100.00
42111;BME280;27766;52.174;5.456;2023-05-03T05:31:47;102962.44;;;5.25;100.00
42111;BME280;27766;52.174;5.456;2023-05-03T05:34:14;102964.56;;;5.31;100.00
42111;BME280;27766;52.174;5.456;2023-05-03T05:36:42;102963.38;;;5.37;100.00
42111;BME280;27766;52.174;5.456;2023-05-03T05:39:09;102959.00;;;5.36;100.00
42111;BME280;27766;52.174;5.456;2023-05-03T05:41:36;102974.19;;;5.45;100.00
42111;BME280;27766;52.174;5.456;2023-05-03T05:44:03;102975.63;;;5.53;100.00
42111;BME280;27766;52.174;5.456;2023-05-03T05:46:30;102966.81;;;5.62;100.00
42111;BME280;27766;52.174;5.456;2023-05-03T05:48:57;102965.78;;;5.71;100.00
42111;BME280;27766;52.174;5.456;2023-05-03T05:51:25;102955.16;;;5.79;100.00
42111;BME280;27766;52.174;5.456;2023-05-03T05:53:53;102957.84;;;5.92;100.00
42111;BME280;27766;52.174;5.456;2023-05-03T05:56:20;102961.31;;;6.05;100.00
42111;BME280;27766;52.174;5.456;2023-05-03T05:58:48;102967.09;;;6.14;100.00
42111;BME280;27766;52.174;5.456;2023-05-03T06:01:15;102966.16;;;6.25;100.00
42111;BME280;27766;52.174;5.456;2023-05-03T06:03:43;102969.47;;;6.36;100.00
42111;BME280;27766;52.174;5.456;2023-05-03T06:06:10;102968.16;;;6.41;100.00
42111;BME280;27766;52.174;5.456;2023-05-03T06:08:38;102967.19;;;6.53;100.00
42111;BME280;27766;52.174;5.456;2023-05-03T06:11:05;102972.50;;;6.68;100.00
42111;BME280;27766;52.174;5.456;2023-05-03T06:13:32;102970.66;;;6.78;100.00
42111;BME280;27766;52.174;5.456;2023-05-03T06:16:04;102966.22;;;6.89;100.00
42111;BME280;27766;52.174;5.456;2023-05-03T06:18:31;102973.59;;;7.10;100.00
42111;BME280;27766;52.174;5.456;2023-05-03T06:20:58;102974.59;;;7.25;100.00
42111;BME280;27766;52.174;5.456;2023-05-03T06:23:25;102974.25;;;7.46;100.00
42111;BME280;27766;52.174;5.456;2023-05-03T06:25:53;102961.13;;;7.56;100.00
42111;BME280;27766;52.174;5.456;2023-05-03T06:28:21;102975.00;;;7.72;100.00
42111;BME280;27766;52.174;5.456;2023-05-03T06:30:49;102969.75;;;7.84;100.00
42111;BME280;27766;52.174;5.456;2023-05-03T06:33:16;102949.63;;;7.91;100.00
42111;BME280;27766;52.174;5.456;2023-05-03T06:35:45;102950.88;;;7.98;100.00
42111;BME280;27766;52.174;5.456;2023-05-03T06:38:13;102958.78;;;8.15;100.00
42111;BME280;27766;52.174;5.456;2023-05-03T06:40:40;102956.34;;;8.31;100.00
42111;BME280;27766;52.174;5.456;2023-05-03T06:43:07;102951.91;;;8.44;100.00
42111;BME280;27766;52.174;5.456;2023-05-03T06:45:34;102955.72;;;8.64;100.00
42111;BME280;27766;52.174;5.456;2023-05-03T06:48:01;102951.91;;;8.72;100.00
42111;BME280;27766;52.174;5.456;2023-05-03T06:50:29;102951.16;;;8.88;100.00
42111;BME280;27766;52.174;5.456;2023-05-03T06:52:56;102952.94;;;9.04;100.00
42111;BME280;27766;52.174;5.456;2023-05-03T06:55:23;102951.13;;;9.03;100.00
42111;BME280;27766;52.174;5.456;2023-05-03T06:57:50;102954.69;;;9.20;100.00
42111;BME280;27766;52.174;5.456;2023-05-03T07:00:19;102958.06;;;9.34;100.00
42111;BME280;27766;52.174;5.456;2023-05-03T07:02:49;102962.19;;;9.45;100.00
42111;BME280;27766;52.174;5.456;2023-05-03T07:05:16;102956.81;;;9.57;100.00
42111;BME280;27766;52.174;5.456;2023-05-03T07:07:43;102938.31;;;9.66;100.00
42111;BME280;27766;52.174;5.456;2023-05-03T07:10:10;102945.84;;;9.78;100.00
42111;BME280;27766;52.174;5.456;2023-05-03T07:12:38;102943.69;;;9.86;95.49
42111;BME280;27766;52.174;5.456;2023-05-03T07:15:05;102940.63;;;9.93;94.46
42111;BME280;27766;52.174;5.456;2023-05-03T07:17:33;102931.69;;;10.03;91.37
42111;BME280;27766;52.174;5.456;2023-05-03T07:20:00;102930.63;;;10.16;87.32
42111;BME280;27766;52.174;5.456;2023-05-03T07:22:27;102934.84;;;10.30;83.72
42111;BME280;27766;52.174;5.456;2023-05-03T07:24:54;102923.25;;;10.07;85.51
42111;BME280;27766;52.174;5.456;2023-05-03T07:27:25;102923.34;;;10.08;85.02
42111;BME280;27766;52.174;5.456;2023-05-03T07:29:52;102920.25;;;10.16;84.61
42111;BME280;27766;52.174;5.456;2023-05-03T07:32:20;102913.16;;;10.28;83.83
42111;BME280;27766;52.174;5.456;2023-05-03T07:34:48;102909.03;;;10.32;82.19
42111;BME280;27766;52.174;5.456;2023-05-03T07:37:15;102912.78;;;10.37;82.57
42111;BME280;27766;52.174;5.456;2023-05-03T07:39:43;102917.16;;;10.38;76.52
42111;BME280;27766;52.174;5.456;2023-05-03T07:42:11;102911.75;;;10.35;80.62
42111;BME280;27766;52.174;5.456;2023-05-03T07:44:38;102893.91;;;10.39;83.68
42111;BME280;27766;52.174;5.456;2023-05-03T07:47:06;102899.50;;;10.47;79.25
42111;BME280;27766;52.174;5.456;2023-05-03T07:49:33;102896.00;;;10.63;85.11
42111;BME280;27766;52.174;5.456;2023-05-03T07:52:02;102892.66;;;10.66;76.84
42111;BME280;27766;52.174;5.456;2023-05-03T07:54:29;102891.78;;;10.65;78.78
42111;BME280;27766;52.174;5.456;2023-05-03T07:56:56;102897.16;;;10.52;74.04
42111;BME280;27766;52.174;5.456;2023-05-03T07:59:23;102893.34;;;10.61;74.96
42111;BME280;27766;52.174;5.456;2023-05-03T08:01:50;102891.72;;;10.64;76.16
42111;BME280;27766;52.174;5.456;2023-05-03T08:04:17;102894.53;;;10.68;74.87
42111;BME280;27766;52.174;5.456;2023-05-03T08:06:45;102901.88;;;10.77;76.62
42111;BME280;27766;52.174;5.456;2023-05-03T08:09:12;102893.53;;;10.83;76.92
42111;BME280;27766;52.174;5.456;2023-05-03T08:11:40;102889.97;;;10.81;70.34
42111;BME280;27766;52.174;5.456;2023-05-03T08:14:10;102892.81;;;10.69;72.63
42111;BME280;27766;52.174;5.456;2023-05-03T08:16:38;102894.47;;;10.85;72.45
42111;BME280;27766;52.174;5.456;2023-05-03T08:19:05;102899.47;;;10.98;72.58
42111;BME280;27766;52.174;5.456;2023-05-03T08:21:33;102896.78;;;10.97;67.10
42111;BME280;27766;52.174;5.456;2023-05-03T08:24:01;102885.06;;;10.87;71.53
42111;BME280;27766;52.174;5.456;2023-05-03T08:26:29;102884.72;;;10.97;70.44
42111;BME280;27766;52.174;5.456;2023-05-03T08:28:56;102884.72;;;10.97;71.60
42111;BME280;27766;52.174;5.456;2023-05-03T08:31:24;102867.63;;;11.01;67.25
42111;BME280;27766;52.174;5.456;2023-05-03T08:33:51;102864.44;;;11.06;68.07
42111;BME280;27766;52.174;5.456;2023-05-03T08:36:18;102860.31;;;11.10;69.69
42111;BME280;27766;52.174;5.456;2023-05-03T08:38:46;102855.75;;;11.24;71.08
42111;BME280;27766;52.174;5.456;2023-05-03T08:41:29;102851.94;;;11.34;68.46
42111;BME280;27766;52.174;5.456;2023-05-03T08:43:57;102853.66;;;11.35;67.30
42111;BME280;27766;52.174;5.456;2023-05-03T08:46:26;102866.72;;;11.36;65.40
42111;BME280;27766;52.174;5.456;2023-05-03T08:48:54;102871.81;;;11.53;64.36
42111;BME280;27766;52.174;5.456;2023-05-03T08:51:22;102872.00;;;11.76;63.84
42111;BME280;27766;52.174;5.456;2023-05-03T08:53:50;102878.75;;;11.92;63.74
42111;BME280;27766;52.174;5.456;2023-05-03T08:56:29;102891.72;;;11.92;61.30
42111;BME280;27766;52.174;5.456;2023-05-03T08:58:58;102883.38;;;11.97;60.75
42111;BME280;27766;52.174;5.456;2023-05-03T09:01:35;102883.91;;;12.10;58.99
42111;BME280;27766;52.174;5.456;2023-05-03T09:04:03;102892.66;;;12.12;57.60
42111;BME280;27766;52.174;5.456;2023-05-03T09:06:31;102892.50;;;12.09;58.13
42111;BME280;27766;52.174;5.456;2023-05-03T09:09:03;102891.75;;;12.11;58.19
42111;BME280;27766;52.174;5.456;2023-05-03T09:11:36;102886.16;;;12.02;59.17
42111;BME280;27766;52.174;5.456;2023-05-03T09:14:17;102889.81;;;12.27;59.68
42111;BME280;27766;52.174;5.456;2023-05-03T09:16:45;102885.03;;;12.36;57.56
42111;BME280;27766;52.174;5.456;2023-05-03T09:19:14;102894.88;;;12.43;58.42
42111;BME280;27766;52.174;5.456;2023-05-03T09:21:44;102886.41;;;12.47;57.12
42111;BME280;27766;52.174;5.456;2023-05-03T09:24:17;102892.06;;;12.39;55.52
42111;BME280;27766;52.174;5.456;2023-05-03T09:26:46;102897.81;;;12.51;57.22
42111;BME280;27766;52.174;5.456;2023-05-03T09:29:28;102899.09;;;12.61;55.71
42111;BME280;27766;52.174;5.456;2023-05-03T09:32:01;102889.06;;;12.49;54.65
42111;BME280;27766;52.174;5.456;2023-05-03T09:34:31;102891.69;;;12.70;54.95
42111;BME280;27766;52.174;5.456;2023-05-03T09:36:58;102893.09;;;12.83;54.48
42111;BME280;27766;52.174;5.456;2023-05-03T09:39:25;102897.69;;;12.69;53.52
42111;BME280;27766;52.174;5.456;2023-05-03T09:41:53;102892.81;;;12.77;57.60
42111;BME280;27766;52.174;5.456;2023-05-03T09:44:39;102905.03;;;13.01;56.07
42111;BME280;27766;52.174;5.456;2023-05-03T09:47:06;102899.41;;;13.11;54.81
42111;BME280;27766;52.174;5.456;2023-05-03T09:49:34;102889.66;;;13.28;53.41
42111;BME280;27766;52.174;5.456;2023-05-03T09:52:03;102887.03;;;13.26;54.31
42111;BME280;27766;52.174;5.456;2023-05-03T09:54:32;102878.63;;;13.34;54.81
42111;BME280;27766;52.174;5.456;2023-05-03T09:57:03;102877.31;;;13.43;51.86
42111;BME280;27766;52.174;5.456;2023-05-03T09:59:32;102892.97;;;13.45;52.17
42111;BME280;27766;52.174;5.456;2023-05-03T10:02:02;102882.31;;;13.39;52.41
42111;BME280;27766;52.174;5.456;2023-05-03T10:04:37;102884.31;;;13.46;52.50
42111;BME280;27766;52.174;5.456;2023-05-03T10:07:08;102876.72;;;13.51;51.92
42111;BME280;27766;52.174;5.456;2023-05-03T10:09:41;102868.84;;;13.49;51.02
42111;BME280;27766;52.174;5.456;2023-05-03T10:12:09;102860.69;;;13.19;51.77
42111;BME280;27766;52.174;5.456;2023-05-03T10:14:43;102862.44;;;13.18;52.48
42111;BME280;27766;52.174;5.456;2023-05-03T10:17:19;102863.44;;;13.22;52.93
42111;BME280;27766;52.174;5.456;2023-05-03T10:20:18;102859.78;;;13.17;53.74
42111;BME280;27766;52.174;5.456;2023-05-03T10:23:08;102856.19;;;13.36;52.85
42111;BME280;27766;52.174;5.456;2023-05-03T10:25:38;102846.91;;;13.42;52.43
42111;BME280;27766;52.174;5.456;2023-05-03T10:28:07;102832.44;;;13.49;51.95
42111;BME280;27766;52.174;5.456;2023-05-03T10:30:37;102839.50;;;13.53;53.17
42111;BME280;27766;52.174;5.456;2023-05-03T10:35:48;102846.97;;;13.67;49.66
42111;BME280;27766;52.174;5.456;2023-05-03T10:38:21;102853.44;;;12.89;53.11
42111;BME280;27766;52.174;5.456;2023-05-03T10:40:50;102852.06;;;12.97;51.54
42111;BME280;27766;52.174;5.456;2023-05-03T10:46:04;102844.38;;;13.67;53.93
42111;BME280;27766;52.174;5.456;2023-05-03T10:48:33;102848.28;;;13.80;51.22
42111;BME280;27766;52.174;5.456;2023-05-03T10:53:56;102843.84;;;13.77;50.09
42111;BME280;27766;52.174;5.456;2023-05-03T10:56:23;102845.69;;;13.80;50.18
42111;BME280;27766;52.174;5.456;2023-05-03T10:58:51;102832.63;;;13.78;50.39
42111;BME280;27766;52.174;5.456;2023-05-03T11:01:23;102835.56;;;13.87;51.87
42111;BME280;27766;52.174;5.456;2023-05-03T11:04:10;102837.31;;;14.13;50.50
42111;BME280;27766;52.174;5.456;2023-05-03T11:06:39;102830.13;;;14.05;50.58
42111;BME280;27766;52.174;5.456;2023-05-03T11:09:11;102832.56;;;14.25;49.80
42111;BME280;27766;52.174;5.456;2023-05-03T11:11:41;102822.53;;;14.37;49.48
42111;BME280;27766;52.174;5.456;2023-05-03T11:14:08;102819.31;;;14.45;49.56
42111;BME280;27766;52.174;5.456;2023-05-03T11:16:36;102815.88;;;14.46;49.35
42111;BME280;27766;52.174;5.456;2023-05-03T11:19:06;102808.25;;;14.52;48.52
42111;BME280;27766;52.174;5.456;2023-05-03T11:21:33;102814.88;;;14.68;48.19
42111;BME280;27766;52.174;5.456;2023-05-03T11:24:00;102800.59;;;14.82;47.21
42111;BME280;27766;52.174;5.456;2023-05-03T11:26:27;102804.81;;;14.79;46.59
42111;BME280;27766;52.174;5.456;2023-05-03T11:28:54;102804.94;;;14.83;47.41
42111;BME280;27766;52.174;5.456;2023-05-03T11:31:22;102795.38;;;14.82;47.37
42111;BME280;27766;52.174;5.456;2023-05-03T11:33:49;102798.41;;;14.96;46.87
42111;BME280;27766;52.174;5.456;2023-05-03T11:36:17;102799.78;;;15.12;46.95
42111;BME280;27766;52.174;5.456;2023-05-03T11:38:44;102794.16;;;15.29;46.15
42111;BME280;27766;52.174;5.456;2023-05-03T11:41:13;102794.22;;;15.30;45.13
42111;BME280;27766;52.174;5.456;2023-05-03T11:43:45;102795.75;;;15.24;44.78
42111;BME280;27766;52.174;5.456;2023-05-03T11:46:19;102798.97;;;15.45;45.21
42111;BME280;27766;52.174;5.456;2023-05-03T11:48:48;102793.34;;;15.62;44.03
42111;BME280;27766;52.174;5.456;2023-05-03T11:51:23;102783.56;;;15.53;44.69
42111;BME280;27766;52.174;5.456;2023-05-03T11:53:50;102777.28;;;15.78;45.37
42111;BME280;27766;52.174;5.456;2023-05-03T11:56:18;102779.38;;;15.60;44.25
42111;BME280;27766;52.174;5.456;2023-05-03T11:58:54;102770.72;;;15.61;43.95
42111;BME280;27766;52.174;5.456;2023-05-03T12:01:25;102773.88;;;15.81;43.65
42111;BME280;27766;52.174;5.456;2023-05-03T12:04:00;102767.88;;;15.83;43.74
42111;BME280;27766;52.174;5.456;2023-05-03T12:06:31;102768.69;;;16.14;43.39
42111;BME280;27766;52.174;5.456;2023-05-03T12:09:02;102766.81;;;16.45;42.63
42111;BME280;27766;52.174;5.456;2023-05-03T12:11:39;102759.81;;;16.81;42.54
42111;BME280;27766;52.174;5.456;2023-05-03T12:14:06;102752.91;;;16.85;42.05
42111;BME280;27766;52.174;5.456;2023-05-03T12:16:54;102757.66;;;16.61;39.95
42111;BME280;27766;52.174;5.456;2023-05-03T12:19:26;102752.75;;;16.77;39.91
42111;BME280;27766;52.174;5.456;2023-05-03T12:21:56;102754.22;;;16.64;39.94
42111;BME280;27766;52.174;5.456;2023-05-03T12:24:43;102737.06;;;16.77;40.57
42111;BME280;27766;52.174;5.456;2023-05-03T12:27:11;102741.69;;;16.89;40.50
42111;BME280;27766;52.174;5.456;2023-05-03T12:29:40;102736.66;;;16.97;41.20
42111;BME280;27766;52.174;5.456;2023-05-03T12:32:08;102741.19;;;17.05;39.76
42111;BME280;27766;52.174;5.456;2023-05-03T12:34:38;102736.84;;;17.04;40.85
42111;BME280;27766;52.174;5.456;2023-05-03T12:37:07;102732.16;;;17.32;41.36
42111;BME280;27766;52.174;5.456;2023-05-03T12:39:38;102722.16;;;17.57;39.89
42111;BME280;27766;52.174;5.456;2023-05-03T12:42:06;102723.69;;;17.46;40.59
42111;BME280;27766;52.174;5.456;2023-05-03T12:44:37;102719.44;;;17.51;39.90
42111;BME280;27766;52.174;5.456;2023-05-03T12:47:09;102715.44;;;17.25;39.18
42111;BME280;27766;52.174;5.456;2023-05-03T12:49:37;102712.47;;;17.07;40.04
42111;BME280;27766;52.174;5.456;2023-05-03T12:52:06;102709.66;;;17.42;42.05
42111;BME280;27766;52.174;5.456;2023-05-03T12:54:35;102712.59;;;17.59;41.85
42111;BME280;27766;52.174;5.456;2023-05-03T12:57:08;102706.28;;;17.48;41.15
42111;BME280;27766;52.174;5.456;2023-05-03T12:59:42;102705.09;;;17.79;41.38
42111;BME280;27766;52.174;5.456;2023-05-03T13:02:16;102689.09;;;18.73;40.15
42111;BME280;27766;52.174;5.456;2023-05-03T13:05:03;102689.78;;;19.25;38.65
42111;BME280;27766;52.174;5.456;2023-05-03T13:07:46;102684.34;;;19.98;38.65
42111;BME280;27766;52.174;5.456;2023-05-03T13:10:22;102686.34;;;20.31;35.18
42111;BME280;27766;52.174;5.456;2023-05-03T13:12:50;102678.47;;;20.36;35.88